KEMT

San Gabriel Valley Airport

El Monte, California, USA
METAR KEMT 161545Z 00000KT 10SM CLR 11/02 A3003
Observed Flight Rules
Nov-16 @ 15:45 UTC (36 minutes ago) Visual Flight Rules
Visibility Clouds
10 miles
  • Clear skies
Temperatures Readings
Current 11°C / 52°F
Dewpoint 2°C / 36°F
Humidity 54%
Altimeter 30.03" Hg
Pressure 1017 hPa
Elevation 90
METAR KEMT 161545Z 00000KT 10SM CLR 11/02 A3003
Observed Flight Rules
Nov-16 @ 15:45 UTC
(36 minutes ago)
VFR
Clouds
  • Clear skies
Temperature Dewpoint
11°C / 52°F 2°C / 36°F
Humidity Altimeter Pressure
54% 30.03" Hg 1017 hPa